Time;durP1;ratioP1;P1;durP2;ratioP2;P2;SDS_P1;SDS_P2;PMS_P1;PMS_P2;Temp;Humidity;BMP_temperature;BMP_pressure;BME280_temperature;BME280_humidity;BME280_pressure;Samples;Min_cycle;Max_cycle;Signal;HPM_P1;HPM_P2
2021/05/30 00:02:53;;;;;;;2.92;2.22;;;21.80;54.80;;;;;;11997198;28;20049;-77
2021/05/30 00:08:41;;;;;;;4.90;2.63;;;21.60;55.70;;;;;;11995874;28;20064;-77
2021/05/30 00:14:27;;;;;;;3.13;2.35;;;21.40;56.30;;;;;;11996122;28;20053;-76
2021/05/30 00:20:15;;;;;;;5.82;2.55;;;21.30;57.10;;;;;;11994912;28;20055;-76
2021/05/30 00:26:04;;;;;;;6.03;2.60;;;21.00;58.10;;;;;;11993645;28;20443;-77
2021/05/30 00:31:50;;;;;;;6.40;2.50;;;20.90;58.60;;;;;;11990238;28;20048;-76
2021/05/30 00:37:37;;;;;;;5.28;2.60;;;20.70;59.30;;;;;;11993277;28;20053;-76
2021/05/30 00:43:24;;;;;;;5.30;2.40;;;20.60;60.10;;;;;;11990921;28;20686;-76
2021/05/30 00:49:11;;;;;;;8.30;3.30;;;20.60;60.60;;;;;;11981248;28;20463;-76
2021/05/30 00:54:57;;;;;;;7.75;3.45;;;20.60;60.40;;;;;;11968272;28;20049;-76
2021/05/30 10:12:39;;;;;;;9.80;6.35;;;20.30;66.70;;;;;;12095001;27;20259;-73
2021/05/30 10:18:28;;;;;;;11.25;5.60;;;21.10;66.00;;;;;;12054412;28;20064;-73
2021/05/30 10:24:16;;;;;;;7.93;6.03;;;21.40;62.70;;;;;;12036633;28;20084;-72
2021/05/30 10:30:17;;;;;;;6.90;4.85;;;21.70;62.20;;;;;;12029579;28;20045;-73
2021/05/30 10:36:12;;;;;;;9.40;5.05;;;22.00;61.80;;;;;;11996217;28;20091;-74
2021/05/30 10:42:13;;;;;;;7.97;5.35;;;22.50;59.80;;;;;;11982523;28;20475;-73
2021/05/30 10:48:19;;;;;;;7.45;5.45;;;22.80;59.80;;;;;;12025028;28;20110;-72
2021/05/30 10:54:12;;;;;;;6.05;4.45;;;22.90;60.40;;;;;;12002871;28;20056;-73
2021/05/30 10:59:58;;;;;;;10.63;7.03;;;23.20;58.60;;;;;;12005070;28;20063;-74
2021/05/30 11:05:48;;;;;;;12.65;9.35;;;23.40;58.60;;;;;;12027435;28;20110;-73
2021/05/30 11:11:34;;;;;;;6.85;4.78;;;23.60;57.70;;;;;;12029001;28;20511;-73
2021/05/30 11:17:35;;;;;;;5.57;4.22;;;23.80;56.10;;;;;;12030750;28;20055;-74
2021/05/30 11:23:23;;;;;;;4.18;3.08;;;23.80;56.10;;;;;;11998025;28;20053;-75
2021/05/30 11:29:09;;;;;;;7.15;3.70;;;23.90;54.30;;;;;;12004876;28;20543;-73
2021/05/30 11:34:56;;;;;;;5.28;3.58;;;24.00;52.50;;;;;;11995210;28;20413;-73
2021/05/30 11:40:44;;;;;;;8.30;3.50;;;24.00;50.80;;;;;;11994306;28;20082;-74
2021/05/30 11:46:34;;;;;;;3.10;2.60;;;23.80;51.60;;;;;;11991932;28;20053;-74
2021/05/30 11:52:20;;;;;;;12.00;3.83;;;23.90;53.10;;;;;;11991088;28;20516;-81
2021/05/30 11:58:09;;;;;;;4.53;2.75;;;24.10;52.40;;;;;;12006243;28;20045;-80
2021/05/30 12:03:58;;;;;;;3.17;2.70;;;24.20;51.80;;;;;;12009145;28;20051;-82
2021/05/30 12:09:54;;;;;;;3.95;2.55;;;24.40;51.40;;;;;;12009494;28;20064;-79
2021/05/30 12:15:42;;;;;;;5.32;2.88;;;24.50;49.80;;;;;;12008392;28;20049;-80
2021/05/30 12:21:43;;;;;;;2.20;2.00;;;24.60;49.20;;;;;;12015326;28;20057;-80
2021/05/30 12:27:32;;;;;;;5.03;1.85;;;24.60;48.10;;;;;;12016634;28;20037;-81
2021/05/30 12:33:21;;;;;;;5.82;2.30;;;24.80;46.20;;;;;;12002438;28;20087;-83
2021/05/30 12:39:12;;;;;;;3.30;2.00;;;24.90;47.40;;;;;;12002396;28;20439;-81
2021/05/30 12:45:07;;;;;;;5.55;2.08;;;25.00;46.30;;;;;;11997562;28;20052;-81
2021/05/30 12:50:55;;;;;;;1.60;1.50;;;25.10;46.50;;;;;;11996899;28;20067;-81
2021/05/30 12:56:46;;;;;;;2.40;1.90;;;25.10;43.50;;;;;;12000273;28;20051;-81
2021/05/30 13:02:33;;;;;;;3.88;2.13;;;25.10;45.80;;;;;;12004900;28;20466;-81
2021/05/30 13:08:22;;;;;;;3.25;2.33;;;25.30;47.10;;;;;;12008372;28;20053;-80
2021/05/30 13:14:08;;;;;;;4.22;1.98;;;25.50;46.20;;;;;;12024821;28;20508;-81
2021/05/30 13:20:07;;;;;;;2.22;1.90;;;25.60;45.30;;;;;;12006647;28;20168;-80
2021/05/30 13:26:04;;;;;;;2.33;2.13;;;25.70;44.50;;;;;;11998226;28;20045;-79
2021/05/30 13:31:51;;;;;;;3.55;2.05;;;25.80;43.40;;;;;;12002947;28;20053;-80
2021/05/30 13:37:38;;;;;;;2.97;2.65;;;25.90;44.90;;;;;;12005627;28;20041;-82
2021/05/30 13:43:26;;;;;;;3.00;2.30;;;26.00;46.00;;;;;;12003605;28;20057;-83
2021/05/30 13:49:13;;;;;;;7.00;2.22;;;26.10;45.60;;;;;;11992148;28;20079;-82
2021/05/30 13:54:59;;;;;;;3.55;2.30;;;26.10;46.00;;;;;;12016722;28;20455;-82
2021/05/30 14:00:46;;;;;;;3.03;2.55;;;26.10;45.70;;;;;;12034364;28;20056;-81
2021/05/30 14:06:33;;;;;;;3.58;2.40;;;25.70;46.00;;;;;;12033281;28;20076;-82
2021/05/30 14:12:20;;;;;;;4.45;2.67;;;25.90;47.20;;;;;;12036068;28;20908;-80
2021/05/30 14:18:07;;;;;;;4.03;2.60;;;26.20;48.20;;;;;;12030124;28;20103;-82
2021/05/30 14:23:55;;;;;;;3.75;2.17;;;26.30;48.30;;;;;;12034177;28;20116;-81
2021/05/30 14:29:42;;;;;;;3.67;2.00;;;26.50;47.70;;;;;;12027166;28;20368;-82
2021/05/30 14:35:30;;;;;;;3.22;2.58;;;26.80;47.30;;;;;;12013615;28;20044;-82
2021/05/30 14:41:18;;;;;;;3.30;2.38;;;27.00;47.80;;;;;;12014876;28;20052;-80
2021/05/30 14:47:06;;;;;;;4.90;2.67;;;27.40;47.70;;;;;;12021633;28;20168;-80
2021/05/30 14:52:53;;;;;;;3.88;2.35;;;27.20;46.90;;;;;;12007887;28;20696;-78
2021/05/30 14:58:39;;;;;;;2.97;2.40;;;27.20;47.60;;;;;;12018114;28;20056;-78
2021/05/30 15:04:27;;;;;;;10.80;2.67;;;27.40;47.20;;;;;;12019762;28;20045;-78
2021/05/30 15:10:22;;;;;;;4.85;2.25;;;27.60;47.40;;;;;;12019583;28;20045;-79
2021/05/30 15:16:08;;;;;;;3.90;2.35;;;27.90;47.00;;;;;;12019051;28;20049;-78
2021/05/30 15:21:56;;;;;;;5.47;2.50;;;27.90;47.20;;;;;;12016815;28;20072;-78
2021/05/30 15:27:46;;;;;;;5.57;2.40;;;28.10;46.60;;;;;;12018282;28;20644;-79
2021/05/30 15:33:33;;;;;;;2.47;2.05;;;27.70;46.10;;;;;;12009259;28;20136;-81
2021/05/30 15:39:19;;;;;;;2.58;2.00;;;27.40;47.20;;;;;;12005207;28;20068;-78
2021/05/30 15:45:09;;;;;;;2.13;1.92;;;28.20;47.20;;;;;;12004221;28;20063;-78
2021/05/30 15:57:00;;;;;;;4.05;2.90;;;32.40;41.10;;;;;;12010165;28;20032;-78
2021/05/30 16:02:47;;;;;;;2.33;1.98;;;33.60;38.50;;;;;;12015452;28;20055;-78
2021/05/30 16:08:33;;;;;;;2.13;1.90;;;34.20;38.20;;;;;;11999939;28;20960;-79
2021/05/30 16:14:21;;;;;;;4.00;2.13;;;34.90;37.70;;;;;;11985922;28;20049;-79
2021/05/30 16:20:11;;;;;;;4.13;2.13;;;32.90;38.50;;;;;;11997295;28;20057;-77
2021/05/30 16:25:58;;;;;;;2.63;2.05;;;30.70;41.20;;;;;;11995284;28;20138;-77
2021/05/30 16:31:45;;;;;;;2.65;2.10;;;29.20;43.40;;;;;;11994183;28;20786;-78
2021/05/30 16:37:32;;;;;;;2.45;2.25;;;28.60;45.20;;;;;;11995979;28;20048;-78
2021/05/30 16:43:20;;;;;;;5.53;2.53;;;28.50;44.70;;;;;;11998684;28;20095;-78
2021/05/30 16:49:06;;;;;;;3.15;2.22;;;30.20;42.80;;;;;;11998006;28;20190;-78
2021/05/30 16:54:59;;;;;;;2.60;2.40;;;32.50;40.60;;;;;;11997708;28;20053;-79
2021/05/30 17:00:47;;;;;;;4.63;2.25;;;35.30;38.00;;;;;;11994788;28;23048;-79
2021/05/30 17:06:33;;;;;;;5.38;2.22;;;36.60;34.40;;;;;;11991064;28;20072;-78
2021/05/30 17:12:20;;;;;;;3.92;2.45;;;33.30;38.00;;;;;;11996183;28;20041;-79
2021/05/30 17:18:07;;;;;;;3.00;2.28;;;30.80;41.00;;;;;;11993578;28;20056;-78
2021/05/30 17:23:53;;;;;;;4.80;2.10;;;30.30;42.10;;;;;;11991947;28;20719;-79
2021/05/30 17:29:42;;;;;;;2.80;2.20;;;34.20;37.60;;;;;;11991116;28;20064;-78
2021/05/30 17:35:29;;;;;;;2.28;2.08;;;37.50;33.60;;;;;;11994599;28;20500;-79
2021/05/30 17:41:17;;;;;;;2.45;2.00;;;39.10;32.30;;;;;;11996066;28;20072;-78
2021/05/30 17:47:04;;;;;;;3.75;2.30;;;37.70;32.60;;;;;;11992087;28;20059;-78
2021/05/30 17:52:51;;;;;;;2.08;1.88;;;37.70;33.10;;;;;;11996461;28;20046;-77
2021/05/30 17:58:38;;;;;;;4.55;2.22;;;35.50;34.20;;;;;;11994849;28;20056;-78
2021/05/30 18:04:25;;;;;;;6.40;3.10;;;32.30;38.40;;;;;;11996653;28;20053;-79
2021/05/30 18:10:11;;;;;;;3.75;2.40;;;30.40;41.40;;;;;;11993683;28;20053;-78
2021/05/30 18:15:59;;;;;;;4.95;2.42;;;32.50;38.70;;;;;;11996537;28;20045;-78
2021/05/30 18:21:46;;;;;;;2.95;2.15;;;35.20;35.70;;;;;;11998491;28;20049;-78
2021/05/30 18:27:35;;;;;;;4.47;2.55;;;36.40;34.20;;;;;;11995696;28;20056;-79
2021/05/30 18:33:25;;;;;;;2.03;1.92;;;36.70;33.90;;;;;;12005323;28;20057;-77
2021/05/30 18:39:12;;;;;;;8.00;2.45;;;36.40;33.80;;;;;;11979565;28;20055;-78
2021/05/30 18:44:59;;;;;;;3.55;2.22;;;36.10;34.00;;;;;;12006785;28;20048;-78
2021/05/30 18:50:45;;;;;;;2.20;2.00;;;35.90;34.20;;;;;;12002475;28;20164;-78
2021/05/30 18:56:33;;;;;;;2.08;1.92;;;35.50;34.80;;;;;;12006713;28;20051;-78
2021/05/30 19:02:19;;;;;;;2.92;2.15;;;34.90;34.70;;;;;;11998896;28;20056;-78
2021/05/30 19:08:06;;;;;;;4.55;2.35;;;34.30;35.60;;;;;;11999742;28;20129;-76
2021/05/30 19:13:56;;;;;;;3.70;2.60;;;32.30;37.80;;;;;;12003283;28;20052;-78
2021/05/30 19:19:42;;;;;;;4.95;2.03;;;30.30;41.00;;;;;;11997649;28;20061;-78
2021/05/30 19:25:41;;;;;;;;;;;;;;;;;;;;;
2021/05/30 19:31:29;;;;;;;6.22;2.38;;;27.90;44.20;;;;;;12002836;28;20079;-78
2021/05/30 19:37:15;;;;;;;4.03;2.30;;;27.10;45.70;;;;;;11996874;28;20087;-78
2021/05/30 19:43:04;;;;;;;6.15;2.47;;;26.60;46.50;;;;;;12009951;28;20060;-78
2021/05/30 19:48:51;;;;;;;2.28;2.08;;;26.10;46.80;;;;;;11991252;28;20136;-77
2021/05/30 19:54:38;;;;;;;3.38;2.15;;;25.70;47.40;;;;;;12000033;28;20048;-78
2021/05/30 20:00:25;;;;;;;6.00;2.40;;;25.50;47.60;;;;;;12002109;28;20752;-79
2021/05/30 20:06:12;;;;;;;3.83;2.40;;;25.30;48.20;;;;;;12004224;28;20052;-78
2021/05/30 20:12:01;;;;;;;4.57;2.22;;;25.10;48.80;;;;;;12001165;28;20097;-78
2021/05/30 20:17:47;;;;;;;4.07;2.45;;;25.00;49.00;;;;;;12009085;28;20503;-78
2021/05/30 20:23:35;;;;;;;2.63;2.40;;;24.80;49.90;;;;;;12013601;28;20065;-79
2021/05/30 20:29:25;;;;;;;2.88;2.60;;;24.70;50.30;;;;;;12013904;28;20281;-78
2021/05/30 20:35:14;;;;;;;3.67;2.70;;;24.60;51.00;;;;;;11996652;28;20056;-78
2021/05/30 20:41:01;;;;;;;3.10;2.50;;;24.60;51.90;;;;;;11996976;28;20067;-78
2021/05/30 20:46:47;;;;;;;4.90;2.97;;;24.50;52.90;;;;;;11998522;28;20064;-78
2021/05/30 20:52:34;;;;;;;5.85;3.67;;;24.30;54.10;;;;;;11998144;28;20662;-78
2021/05/30 20:58:22;;;;;;;6.03;3.40;;;24.10;55.20;;;;;;11993235;28;20049;-78
2021/05/30 21:04:08;;;;;;;7.38;3.35;;;24.00;55.90;;;;;;11996233;28;20087;-78
2021/05/30 21:09:55;;;;;;;8.63;2.88;;;23.80;56.50;;;;;;11999402;28;20060;-78
2021/05/30 21:15:43;;;;;;;8.95;3.25;;;23.60;56.70;;;;;;11996029;28;20178;-78
2021/05/30 21:21:30;;;;;;;5.63;3.20;;;23.50;56.30;;;;;;11995377;28;20063;-77
2021/05/30 21:27:17;;;;;;;4.47;3.25;;;23.30;55.70;;;;;;11996964;28;20111;-78
2021/05/30 21:33:04;;;;;;;7.97;2.97;;;23.20;56.20;;;;;;11987719;28;20526;-77
2021/05/30 21:38:51;;;;;;;4.75;3.30;;;23.00;57.20;;;;;;11996408;28;20083;-77
2021/05/30 21:44:40;;;;;;;4.97;3.30;;;22.80;57.70;;;;;;11993753;28;20064;-77
2021/05/30 21:50:29;;;;;;;7.65;3.25;;;22.80;57.10;;;;;;11992324;28;20060;-76
2021/05/30 21:56:15;;;;;;;5.75;3.22;;;22.70;57.40;;;;;;11990008;28;20159;-76
2021/05/30 22:02:02;;;;;;;4.68;3.35;;;22.60;57.30;;;;;;12023549;28;20926;-82
2021/05/30 22:07:49;;;;;;;5.43;3.20;;;22.60;57.90;;;;;;11994201;28;20156;-76
2021/05/30 22:13:36;;;;;;;7.38;3.08;;;22.40;58.10;;;;;;11986672;28;20057;-77
2021/05/30 22:19:25;;;;;;;4.20;3.00;;;22.40;58.40;;;;;;11996665;28;20048;-78
2021/05/30 22:25:13;;;;;;;5.47;3.28;;;22.30;58.40;;;;;;11994023;28;20067;-78
2021/05/30 22:31:00;;;;;;;8.77;3.20;;;22.20;59.20;;;;;;11998692;28;21207;-78
2021/05/30 22:36:47;;;;;;;6.35;3.10;;;22.20;58.80;;;;;;12001650;28;20499;-78
2021/05/30 22:42:34;;;;;;;8.02;3.38;;;22.10;58.90;;;;;;11998936;28;20118;-78
2021/05/30 22:48:20;;;;;;;3.85;3.15;;;22.10;58.80;;;;;;11999756;28;20511;-76
2021/05/30 22:54:06;;;;;;;3.78;3.08;;;22.00;58.90;;;;;;11992013;28;20546;-76
2021/05/30 22:59:54;;;;;;;6.63;2.90;;;21.90;58.90;;;;;;11994043;28;20480;-76
2021/05/30 23:05:40;;;;;;;6.68;3.13;;;21.90;59.50;;;;;;11992347;28;20063;-78
2021/05/30 23:11:29;;;;;;;5.10;2.78;;;21.90;59.30;;;;;;11996202;28;20053;-77
2021/05/30 23:17:16;;;;;;;5.85;3.08;;;21.80;59.70;;;;;;12000015;28;20056;-77
2021/05/30 23:23:03;;;;;;;5.53;2.90;;;21.70;59.50;;;;;;12002650;28;20049;-77
2021/05/30 23:28:49;;;;;;;5.43;2.58;;;21.60;59.70;;;;;;12007358;28;20543;-77
2021/05/30 23:34:36;;;;;;;9.07;3.03;;;21.60;59.80;;;;;;12003990;28;20041;-77
2021/05/30 23:40:26;;;;;;;5.55;3.00;;;21.60;59.70;;;;;;12004078;28;20052;-78
2021/05/30 23:46:13;;;;;;;6.43;3.13;;;21.50;60.10;;;;;;11998191;28;20880;-78
2021/05/30 23:52:00;;;;;;;3.83;2.72;;;21.50;59.80;;;;;;11995576;28;20118;-77
2021/05/30 23:57:47;;;;;;;5.70;2.75;;;21.50;60.00;;;;;;12003361;28;20060;-78
